• Join FlightAware (Why Join?)
  • Login
  • US Flag 
02:42PM EDT


 

Airport Tracker/Info


-or-


 

Live Flight TrackerFlight Track Log ✈ C-GEDA ✈ 17-Nov-2013 ✈ KACT - KNYL

Flight Track Log - Related Links

Times and Time Zones

All times are in EST time to prevent confusion due to time zone crossing. See the C-GEDA flight status page for this flight to view local times or setup timezone preferences in your user account.

Time Position Orientation Groundspeed Altitude Reporting Facility
EST Latitude Longitude Course Direction KTS MPH feet Rate Location/Type
05:01PM 31.6505 -97.5278 270° West  Level Estimated
05:02PM 31.6581 -97.5874 270° West  Level Estimated
05:02PM 31.5600 -97.4460 270° West 106 122 7,600  Level FlightAware
05:02PM 31.5610 -97.4590 275° West 110 127 7,900 780 Climbing FlightAware
05:03PM 31.5620 -97.4730 275° West 114 131 8,200 840 Climbing FlightAware
05:03PM 31.5630 -97.4880 274° West 118 136 8,600 840 Climbing FlightAware
05:04PM 31.5640 -97.5040 274° West 119 137 8,900 780 Climbing FlightAware
05:04PM 31.5650 -97.5120 278° West 119 137 9,100 960 Climbing FlightAware
05:05PM 31.5670 -97.5380 275° West 112 129 9,800 660 Climbing FlightAware
05:05PM 31.5690 -97.5630 275° West 111 128 10,100 120 Climbing FlightAware
05:06PM 31.5710 -97.5930 274° West 111 128 10,100 1,140 Level FlightAware
05:07PM 31.5740 -97.6360 275° West 113 130 12,400 1,680 Climbing FlightAware
05:08PM 31.5770 -97.6640 277° West 113 130 13,100 840 Climbing FlightAware
05:09PM 31.5800 -97.6980 276° West 118 136 13,800 780 Climbing FlightAware
05:09PM 31.5810 -97.7190 273° West 120 138 14,300 840 Climbing FlightAware
05:10PM 31.5830 -97.7390 277° West 122 140 14,700 780 Climbing FlightAware
05:10PM 31.5840 -97.7590 273° West 122 140 15,100 840 Climbing FlightAware
05:12PM 31.5880 -97.8080 275° West 119 137 16,200 780 Climbing FlightAware
05:13PM 31.5910 -97.8460 275° West 128 147 16,900 660 Climbing FlightAware
05:13PM 31.5930 -97.8760 274° West 134 154 17,400 660 Climbing FlightAware
05:14PM 31.5960 -97.9080 276° West 134 154 17,900 660 Climbing FlightAware
05:15PM 31.5980 -97.9450 274° West 131 151 18,500 720 Climbing FlightAware
05:16PM 31.6010 -97.9770 276° West 132 152 19,100 780 Climbing FlightAware
05:16PM 31.6020 -97.9990 273° West 135 155 19,500 660 Climbing FlightAware
05:17PM 31.6040 -98.0210 276° West 138 159 19,800 240 Climbing FlightAware
05:18PM 31.6070 -98.0610 275° West 154 177 19,900 60 Climbing FlightAware
05:18PM 31.6100 -98.1050 275° West 159 183 20,000 60 Climbing FlightAware
05:19PM 31.6120 -98.1340 275° West 161 185 20,000  Level FlightAware
05:20PM 31.6150 -98.1620 277° West 164 189 20,000 -180 Level FlightAware
05:20PM 31.6180 -98.2100 274° West 179 206 19,800 -480 Descending FlightAware
05:21PM 31.6200 -98.2410 274° West 193 222 19,400 -660 Descending FlightAware
05:22PM 31.6250 -98.2950 276° West 204 235 18,900 -600 Descending FlightAware
05:23PM 31.6290 -98.3530 275° West 209 241 18,400 -660 Descending FlightAware
05:23PM 31.6330 -98.4070 275° West 210 242 17,900 -660 Descending FlightAware
05:24PM 31.6380 -98.4790 275° West 208 239 17,200 -660 Descending FlightAware
05:25PM 31.6420 -98.5370 275° West 206 237 16,700 -600 Descending FlightAware
05:26PM 31.6460 -98.5840 276° West 204 235 16,300 -420 Descending FlightAware
05:27PM 31.6490 -98.6400 274° West 192 221 16,100 -120 Descending FlightAware
05:28PM 31.6530 -98.7000 274° West 182 209 16,100  Level FlightAware
05:29PM 31.6570 -98.7510 275° West 175 201 16,100  Level FlightAware
05:30PM 31.6600 -98.7960 274° West 173 199 16,100  Level FlightAware
05:30PM 31.6630 -98.8470 274° West 173 199 16,100  Level FlightAware
05:31PM 31.6660 -98.8890 275° West 172 198 16,100  Level FlightAware
05:32PM 31.6690 -98.9200 276° West 172 198 16,100  Level FlightAware
05:33PM 31.6710 -98.9650 273° West 171 197 16,100  Level FlightAware
05:33PM 31.6730 -98.9950 274° West 172 198 16,100  Level FlightAware
05:34PM 31.6770 -99.0470 275° West 171 197 16,100  Level FlightAware
05:35PM 31.6790 -99.0750 275° West 170 196 16,100  Level FlightAware
05:35PM 31.6820 -99.1160 275° West 170 196 16,100  Level FlightAware
05:36PM 31.6840 -99.1560 273° West 173 199 16,100  Level FlightAware
05:37PM 31.6870 -99.1980 275° West 172 198 16,100  Level FlightAware
05:38PM 31.6900 -99.2410 275° West 171 197 16,100  Level FlightAware
05:38PM 31.6920 -99.2830 273° West 172 198 16,100  Level FlightAware
05:39PM 31.6950 -99.3300 274° West 168 193 16,100  Level FlightAware
05:40PM 31.6980 -99.3640 276° West 169 194 16,100  Level FlightAware
05:41PM 31.7000 -99.4090 273° West 170 196 16,100  Level FlightAware
05:41PM 31.7020 -99.4390 274° West 169 194 16,100  Level FlightAware
05:42PM 31.7050 -99.4880 274° West 172 198 16,100  Level FlightAware
05:43PM 31.7080 -99.5320 275° West 171 197 16,100  Level FlightAware
05:44PM 31.7110 -99.5760 275° West 170 196 16,100  Level FlightAware
05:44PM 31.7130 -99.6170 273° West 168 193 16,100  Level FlightAware
05:45PM 31.7160 -99.6570 275° West 168 193 16,100  Level FlightAware
05:46PM 31.7180 -99.6980 273° West 166 191 16,100  Level FlightAware
05:46PM 31.7210 -99.7340 276° West 165 190 16,100  Level FlightAware
05:47PM 31.7230 -99.7770 273° West 167 192 16,100  Level FlightAware
05:48PM 31.7260 -99.8170 275° West 166 191 16,100  Level FlightAware
05:49PM 31.7280 -99.8630 273° West 164 189 16,100  Level FlightAware
05:50PM 31.7310 -99.9090 274° West 167 192 16,100  Level FlightAware
05:51PM 31.7340 -99.9550 274° West 166 191 16,100  Level FlightAware
05:51PM 31.7360 -99.9910 274° West 168 193 16,100  Level FlightAware
05:52PM 31.7390 -100.0350 275° West 170 196 16,100  Level FlightAware
05:53PM 31.7410 -100.0750 273° West 169 194 16,100  Level FlightAware
05:54PM 31.7440 -100.1220 274° West 167 192 16,100  Level FlightAware
05:54PM 31.7470 -100.1690 274° West 166 191 16,100  Level FlightAware
05:55PM 31.7490 -100.2020 274° West 164 189 16,100  Level FlightAware
05:56PM 31.7510 -100.2480 273° West 165 190 16,100  Level FlightAware
05:57PM 31.7540 -100.2950 274° West 165 190 16,100  Level FlightAware
05:58PM 31.7560 -100.3340 273° West 166 191 16,100  Level FlightAware
05:58PM 31.7590 -100.3770 275° West 169 194 16,100  Level FlightAware
05:59PM 31.7610 -100.4230 273° West 169 194 16,100  Level FlightAware
06:00PM 31.7640 -100.4710 274° West 167 192 16,100  Level FlightAware
06:01PM 31.7650 -100.5060 272° West 166 191 16,100  Level FlightAware
06:02PM 31.7680 -100.5500 275° West 164 189 16,100  Level FlightAware
06:02PM 31.7700 -100.5850 274° West 166 191 16,100  Level FlightAware
06:03PM 31.7730 -100.6400 274° West 166 191 16,100  Level FlightAware
06:04PM 31.7760 -100.6900 274° West 165 190 16,100  Level FlightAware
06:07PM 31.7830 -100.8280 273° West 163 188 16,100  Level FlightAware
06:08PM 31.7870 -100.9080 273° West 162 186 16,100  Level FlightAware
06:09PM 31.7890 -100.9440 274° West 162 186 16,100  Level FlightAware
06:10PM 31.7910 -100.9860 273° West 163 188 16,100  Level FlightAware
06:11PM 31.7930 -101.0290 273° West 161 185 16,100  Level FlightAware
06:12PM 31.7980 -101.1280 273° West 160 184 16,100 -60 Level FlightAware
06:15PM 31.8060 -101.2720 274° West 168 193 16,000 -60 Descending FlightAware
06:16PM 31.8070 -101.3050 272° West 165 190 16,000  Level FlightAware
06:18PM 31.8130 -101.4170 274° West 165 190 16,000  Level FlightAware
06:19PM 31.8140 -101.4440 273° West 165 190 16,000  Level FlightAware
06:19PM 31.8150 -101.4810 272° West 165 190 16,000  Level FlightAware
06:21PM 31.8210 -101.5870 274° West 164 189 16,000  Level FlightAware
06:23PM 31.8250 -101.6880 273° West 164 189 16,000  Level FlightAware
06:24PM 31.8270 -101.7240 274° West 164 189 16,000  Level FlightAware
06:25PM 31.8306 -101.7958 274° West 167 192 16,000  Level Fort Worth Center
06:26PM 31.8333 -101.8481 274° West 163 188 16,000 -60 Level Fort Worth Center
06:27PM 31.8361 -101.9042 273° West 170 196 15,900  Descending Fort Worth Center
06:28PM 31.8383 -101.9572 273° West 166 191 16,000  Climbing Fort Worth Center
06:29PM 31.8406 -102.0108 273° West 166 191 15,900 -60 Descending Fort Worth Center
06:30PM 31.8431 -102.0775 273° West 170 196 15,900  Level Fort Worth Center
06:31PM 31.8456 -102.1319 273° West 167 192 16,000  Climbing Fort Worth Center
06:32PM 31.8483 -102.1881 273° West 173 199 16,000 -60 Level Fort Worth Center
06:33PM 31.8500 -102.2428 272° West 170 196 15,900 -60 Descending Fort Worth Center
06:34PM 31.8528 -102.2986 273° West 171 197 15,900  Level Fort Worth Center
06:35PM 31.8544 -102.3647 272° West 169 194 16,000  Climbing Fort Worth Center
06:36PM 31.8567 -102.4183 273° West 167 192 16,000  Level Fort Worth Center
06:37PM 31.8600 -102.4719 274° West 166 191 16,000  Level Fort Worth Center
06:39PM 31.8619 -102.5281 272° West 168 193 16,000  Level Fort Worth Center
06:40PM 31.8639 -102.5806 273° West 167 192 16,000  Level Fort Worth Center
06:41PM 31.8658 -102.6347 272° West 165 190 16,000 -60 Level Fort Worth Center
06:42PM 31.8683 -102.7006 273° West 167 192 15,900 -60 Descending Fort Worth Center
06:43PM 31.8694 -102.7567 271° West 169 194 15,900  Level Fort Worth Center
06:44PM 31.8717 -102.8108 273° West 168 193 16,000  Climbing Fort Worth Center
06:45PM 31.8725 -102.8653 271° West 167 192 15,900  Descending Fort Worth Center
06:46PM 31.8764 -102.9194 275° West 168 193 16,000  Climbing Fort Worth Center
06:47PM 31.8786 -102.9858 272° West 168 193 16,000  Level Fort Worth Center
06:48PM 31.8797 -103.0417 271° West 169 194 16,000  Level Fort Worth Center
06:49PM 31.8819 -103.0972 273° West 170 196 16,000  Level Fort Worth Center
06:50PM 31.8836 -103.1519 272° West 169 194 16,000  Level Fort Worth Center
06:51PM 31.8853 -103.2067 272° West 169 194 16,000  Level Fort Worth Center
06:52PM 31.8869 -103.2619 272° West 169 194 16,000  Level Fort Worth Center
06:53PM 31.8892 -103.3286 272° West 169 194 16,000  Level Fort Worth Center
06:54PM 31.8908 -103.3858 272° West 173 199 16,000  Level Fort Worth Center
06:55PM 31.8925 -103.4422 272° West 173 199 16,000  Level Fort Worth Center
06:56PM 31.8942 -103.4981 272° West 172 198 16,000  Level Fort Worth Center
06:57PM 31.8964 -103.5525 273° West 170 196 16,000 -60 Level Fort Worth Center
06:58PM 31.8978 -103.6214 271° West 173 199 15,900  Descending Fort Worth Center
06:59PM 31.8989 -103.6758 271° West 170 196 16,000  Climbing Fort Worth Center
07:00PM 31.9006 -103.7317 272° West 170 196 16,000  Level Fort Worth Center
07:01PM 31.9039 -103.7864 274° West 170 196 16,000 -60 Level Fort Worth Center
07:02PM 31.9047 -103.8431 271° West 171 197 15,900  Descending Fort Worth Center
07:03PM 31.9067 -103.8989 272° West 172 198 16,000  Climbing Fort Worth Center
07:04PM 31.9069 -103.9661 270° West 171 197 16,000 -60 Level Fort Worth Center
07:05PM 31.9086 -104.0242 272° West 174 200 15,900  Descending Fort Worth Center
07:06PM 31.9106 -104.0822 272° West 176 203 16,000  Climbing Fort Worth Center
07:07PM 31.9136 -104.1383 274° West 175 201 16,000 -60 Level Fort Worth Center
07:09PM 31.9147 -104.1956 271° West 175 201 15,900 -60 Descending Fort Worth Center
07:10PM 31.9153 -104.2519 271° West 172 198 15,900 60 Level Fort Worth Center
07:11PM 31.9197 -104.3267 274° West 169 194 16,100 60 Climbing Albuquerque Center
07:12PM 31.9206 -104.3825 271° West 171 197 16,100 -60 Level Albuquerque Center
07:13PM 31.9222 -104.4394 272° West 174 200 16,000  Descending Albuquerque Center
07:14PM 31.9244 -104.4953 273° West 173 199 16,100  Climbing Albuquerque Center
07:15PM 31.9244 -104.5633 270° West 173 199 16,100  Level Albuquerque Center
07:16PM 31.9250 -104.6211 271° West 176 203 16,100  Level Albuquerque Center
07:17PM 31.9272 -104.6786 273° West 176 203 16,100 -60 Level Albuquerque Center
07:18PM 31.9278 -104.7372 271° West 178 205 16,000  Descending Albuquerque Center
07:19PM 31.9283 -104.7931 271° West 174 200 16,100  Climbing Albuquerque Center
07:20PM 31.9308 -104.8492 273° West 171 197 16,100  Level Albuquerque Center
07:21PM 31.9319 -104.9192 271° West 178 205 16,100  Level Albuquerque Center
07:22PM 31.9333 -104.9742 272° West 173 199 16,100  Level Albuquerque Center
07:23PM 31.9347 -105.0292 272° West 169 194 16,100  Level Albuquerque Center
07:24PM 31.9339 -105.0819 269° West 165 190 16,100  Level Albuquerque Center
07:25PM 31.9358 -105.1342 273° West 161 185 16,100  Level Albuquerque Center
07:26PM 31.9367 -105.1892 271° West 165 190 16,100  Level Albuquerque Center
07:27PM 31.9381 -105.2450 272° West 169 194 16,100  Level Albuquerque Center
07:28PM 31.9389 -105.2994 271° West 168 193 16,100  Level Albuquerque Center
07:29PM 31.9394 -105.3661 271° West 169 194 16,100 -60 Level Albuquerque Center
07:30PM 31.9406 -105.4203 271° West 168 193 16,000 -120 Descending Albuquerque Center
07:31PM 31.9392 -105.4342 263° West 168 193 16,000 -120 Level Albuquerque Center
07:31PM 31.9414 -105.4767 274° West 172 198 15,900  Descending Albuquerque Center
07:31PM 31.9397 -105.4819 250° West 175 201 16,000 60 Climbing Albuquerque Center
07:32PM 31.9417 -105.5322 273° West 171 197 16,000  Level Albuquerque Center
07:33PM 31.9403 -105.5869 268° West 166 191 16,000  Level Albuquerque Center
07:33PM 31.9433 -105.5861 13° North 166 191 16,000 -120 Level Albuquerque Center
07:34PM 31.9436 -105.6419 270° West 170 196 15,900 -60 Descending Albuquerque Center
07:35PM 31.9453 -105.6983 272° West 173 199 15,900  Level Albuquerque Center
07:36PM 31.9444 -105.7589 269° West 170 196 16,000 60 Climbing Albuquerque Center
07:37PM 31.9458 -105.7642 287° West 171 197 16,000  Level Albuquerque Center
07:37PM 31.9442 -105.8142 268° West 168 193 16,000  Level Albuquerque Center
07:38PM 31.9469 -105.8186 306° West 168 193 16,000  Level Albuquerque Center
07:38PM 31.9461 -105.8711 269° West 170 196 16,000  Level Albuquerque Center
07:39PM 31.9467 -105.8786 275° West 171 197 16,000  Level Albuquerque Center
07:39PM 31.9472 -105.9236 271° West 167 192 16,000  Level Albuquerque Center
07:40PM 31.9475 -105.9289 274° West 167 192 16,000  Level Albuquerque Center
07:41PM 31.9478 -105.9836 270° West 167 192 16,000 -120 Level Albuquerque Center
07:41PM 31.9489 -105.9817 56° Northeast 169 194 15,900  Descending Albuquerque Center
07:42PM 31.9481 -106.0436 269° West 169 194 16,000  Climbing Albuquerque Center
07:42PM 31.9489 -106.0369 82° East 169 194 15,900  Descending Albuquerque Center
07:43PM 31.9500 -106.1000 271° West 161 185 16,000  Climbing Albuquerque Center
07:43PM 31.9497 -106.1458 270° West 165 190 16,000  Level Albuquerque Center
07:44PM 31.9503 -106.1544 274° West 165 190 16,000  Level Albuquerque Center
07:44PM 31.9511 -106.2006 271° West 173 199 16,000  Level Albuquerque Center
07:45PM 31.9519 -106.2111 275° West 172 198 16,000  Level Albuquerque Center
07:45PM 31.9511 -106.2581 269° West 170 196 16,000 -120 Level Albuquerque Center
07:46PM 31.9517 -106.2658 275° West 168 193 15,900  Descending Albuquerque Center
07:46PM 31.9581 -106.3089 280° West 163 188 16,000  Climbing Albuquerque Center
07:47PM 31.9606 -106.3181 288° West 164 189 15,900  Descending Albuquerque Center
07:48PM 31.9711 -106.3736 283° West 173 199 16,000  Climbing Albuquerque Center
07:49PM 31.9794 -106.4264 281° West 170 196 16,000 -120 Level Albuquerque Center
07:49PM 31.9806 -106.4281 308° West 170 196 15,900  Descending Albuquerque Center
07:50PM 31.9906 -106.4811 283° West 167 192 16,000  Climbing Albuquerque Center
07:51PM 32.0003 -106.5367 282° West 173 199 16,000  Level Albuquerque Center
07:52PM 32.0125 -106.6014 283° West 169 194 16,000 -60 Level Albuquerque Center
07:53PM 32.0228 -106.6558 283° West 171 197 15,900 -60 Descending Albuquerque Center
07:54PM 32.0325 -106.7103 282° West 169 194 15,900  Level Albuquerque Center
07:55PM 32.0425 -106.7631 283° West 166 191 16,000  Climbing Albuquerque Center
07:56PM 32.0525 -106.8172 282° West 169 194 16,000 -60 Level Albuquerque Center
07:57PM 32.0631 -106.8722 283° West 172 198 15,900  Descending Albuquerque Center
07:58PM 32.0714 -106.9269 280° West 170 196 16,000  Climbing Albuquerque Center
07:59PM 32.0822 -106.9833 283° West 173 199 16,000  Level Albuquerque Center
08:00PM 32.0933 -107.0481 281° West 171 197 16,000 -60 Level Albuquerque Center
08:01PM 32.1039 -107.1042 283° West 172 198 15,900 -60 Descending Albuquerque Center
08:02PM 32.1131 -107.1608 281° West 174 200 15,900  Level Albuquerque Center
08:03PM 32.1231 -107.2161 282° West 173 199 16,000  Climbing Albuquerque Center
08:04PM 32.1319 -107.2717 281° West 172 198 16,000  Level Albuquerque Center
08:05PM 32.1419 -107.3269 282° West 172 198 16,000  Level Albuquerque Center
08:06PM 32.1519 -107.3842 282° West 176 203 16,000  Level Albuquerque Center
08:07PM 32.1617 -107.4411 281° West 177 204 16,000  Level Albuquerque Center
08:08PM 32.1725 -107.5075 281° West 173 199 16,000 -60 Level Albuquerque Center
08:09PM 32.1822 -107.5644 281° West 175 201 15,900 -60 Descending Albuquerque Center
08:10PM 32.1919 -107.6197 282° West 174 200 15,900  Level Albuquerque Center
08:11PM 32.2014 -107.6758 281° West 174 200 16,000  Climbing Albuquerque Center
08:12PM 32.2114 -107.7328 282° West 176 203 15,900  Descending Albuquerque Center
08:13PM 32.2200 -107.7886 280° West 174 200 16,000  Climbing Albuquerque Center
08:14PM 32.2308 -107.8450 283° West 175 201 15,900  Descending Albuquerque Center
08:16PM 32.2411 -107.9014 282° West 176 203 16,000  Climbing Albuquerque Center
08:17PM 32.2514 -107.9686 280° West 174 200 15,900 -120 Descending Albuquerque Center
08:18PM 32.2617 -108.0275 282° West 180 207 15,800 -60 Descending Albuquerque Center
08:19PM 32.2722 -108.0828 283° West 176 203 15,800  Level Albuquerque Center
08:20PM 32.2803 -108.1389 280° West 174 200 15,800  Level Albuquerque Center
08:21PM 32.2886 -108.1928 280° West 169 194 15,800  Level Albuquerque Center
08:22PM 32.2989 -108.2494 282° West 174 200 15,800  Level Albuquerque Center
08:23PM 32.3083 -108.3064 281° West 176 203 15,800  Level Albuquerque Center
08:24PM 32.3206 -108.3742 282° West 176 203 15,900  Climbing Albuquerque Center
08:25PM 32.3286 -108.4303 280° West 175 201 15,800  Descending Albuquerque Center
08:26PM 32.3386 -108.4831 283° West 175 201 15,900  Climbing Albuquerque Center
08:27PM 32.3467 -108.5408 279° West 177 204 15,900  Level Albuquerque Center
08:28PM 32.3567 -108.5975 282° West 177 204 15,900  Level Albuquerque Center
08:29PM 32.3658 -108.6539 281° West 176 203 15,900  Level Albuquerque Center
08:30PM 32.3775 -108.7208 282° West 174 200 15,900  Level Albuquerque Center
08:31PM 32.3847 -108.7786 278° West 176 203 15,900  Level Albuquerque Center
08:32PM 32.3958 -108.8339 283° West 175 201 15,900  Level Albuquerque Center
08:34PM 32.4139 -108.9492 281° West 178 205 15,900  Level Albuquerque Center
08:35PM 32.4233 -109.0069 281° West 179 206 15,900  Level Albuquerque Center
08:36PM 32.4311 -109.0639 279° West 177 204 15,900  Level Albuquerque Center
08:37PM 32.4411 -109.1219 282° West 179 206 15,900  Level Albuquerque Center
08:38PM 32.4528 -109.1911 281° West 179 206 15,900  Level Albuquerque Center
08:39PM 32.4611 -109.2497 280° West 180 207 15,900  Level Albuquerque Center
08:40PM 32.4708 -109.3081 281° West 180 207 15,900  Level Albuquerque Center
08:41PM 32.4806 -109.3669 281° West 182 209 15,900  Level Albuquerque Center
08:42PM 32.4889 -109.4247 280° West 181 208 15,900  Level Albuquerque Center
08:43PM 32.4978 -109.4842 280° West 182 209 15,900  Level Albuquerque Center
08:44PM 32.5075 -109.5431 281° West 182 209 15,900  Level Albuquerque Center
08:45PM 32.5169 -109.6025 281° West 183 211 15,900  Level Albuquerque Center
08:46PM 32.5289 -109.6739 281° West 183 211 15,900  Level Albuquerque Center
08:47PM 32.5383 -109.7342 281° West 185 213 15,900  Level Albuquerque Center
08:48PM 32.5478 -109.7931 281° West 185 213 15,900  Level Albuquerque Center
08:49PM 32.5578 -109.8542 281° West 186 214 15,900  Level Albuquerque Center
08:50PM 32.5672 -109.9139 281° West 186 214 15,900  Level Albuquerque Center
08:51PM 32.5753 -109.9719 279° West 182 209 15,900  Level Albuquerque Center
08:52PM 32.5844 -110.0333 280° West 185 213 15,900  Level Albuquerque Center
08:53PM 32.5947 -110.0933 282° West 187 215 15,900  Level Albuquerque Center
08:55PM 32.6050 -110.1542 281° West 188 216 15,900  Level Albuquerque Center
08:56PM 32.6153 -110.2269 280° West 188 216 15,900  Level Albuquerque Center
08:57PM 32.6242 -110.2878 280° West 187 215 15,900  Level Albuquerque Center
08:58PM 32.6333 -110.3464 281° West 187 215 15,900  Level Albuquerque Center
08:59PM 32.6414 -110.4069 279° West 186 214 16,000  Climbing Albuquerque Center
09:00PM 32.6506 -110.4683 280° West 188 216 16,000  Level Albuquerque Center
09:01PM 32.6603 -110.5281 281° West 187 215 16,000  Level Albuquerque Center
09:02PM 32.6694 -110.5922 280° West 188 216 16,000  Level Albuquerque Center
09:03PM 32.6797 -110.6625 280° West 187 215 16,000 -60 Level Albuquerque Center
09:06PM 32.7099 -110.8783 280° West 190 219 15,900 -60 Descending FlightAware ADS-B (KDMA)
09:09PM 32.7338 -111.0448 280° West 191 220 15,900  Level FlightAware ADS-B (KDMA)
09:12PM 32.7624 -111.2463 280° West 191 220 15,900  Level FlightAware ADS-B (KDMA)
09:13PM 32.7670 -111.2790 279° West 194 223 15,900  Level FlightAware ADS-B (KDMA)
09:15PM 32.7786 -111.3627 279° West 195 224 15,900  Level FlightAware ADS-B (KDMA)
09:17PM 32.7976 -111.4974 280° West 196 226 15,900  Level FlightAware ADS-B (KDMA)
09:21PM 32.8428 -111.8207 280° West 194 223 15,900 -60 Level FlightAware ADS-B (KDMA)
09:23PM 32.8528 -111.9000 280° West 191 220 15,800 -180 Descending Los Angeles Center
09:23PM 32.8603 -111.9383 283° West 198 228 15,600 -300 Descending Albuquerque Center
09:24PM 32.8706 -112.0025 281° West 199 229 15,300 -300 Descending Albuquerque Center
09:25PM 32.8797 -112.0800 278° West 197 227 15,000 -300 Descending Albuquerque Center
09:26PM 32.8881 -112.1464 279° West 200 230 14,700 -300 Descending Albuquerque Center
09:27PM 32.8958 -112.2103 278° West 198 228 14,400 -300 Descending Albuquerque Center
09:28PM 32.9044 -112.2744 279° West 197 227 14,100 -300 Descending Albuquerque Center
09:29PM 32.9125 -112.3375 279° West 195 224 13,900 -300 Descending Albuquerque Center
09:30PM 32.9211 -112.4022 279° West 198 228 13,600 -300 Descending Albuquerque Center
09:31PM 32.9294 -112.4667 279° West 198 228 13,400 -300 Descending Albuquerque Center
09:33PM 32.9397 -112.5439 279° West 198 228 13,100 -360 Descending Albuquerque Center
09:34PM 32.9489 -112.6089 280° West 199 229 12,700 -360 Descending Albuquerque Center
09:35PM 32.9572 -112.6756 278° West 203 234 12,400 -360 Descending Albuquerque Center
09:36PM 32.9486 -112.7400 261° West 201 231 12,000 -420 Descending Albuquerque Center
09:37PM 32.9400 -112.8011 260° West 192 221 11,600 -360 Descending Albuquerque Center
09:38PM 32.9319 -112.8622 261° West 189 217 11,300 -360 Descending Albuquerque Center
09:39PM 32.9231 -112.9228 260° West 188 216 10,900 -420 Descending Albuquerque Center
09:40PM 32.9136 -112.9953 261° West 187 215 10,500 -420 Descending Albuquerque Center
09:41PM 32.9061 -113.0539 261° West 183 211 10,100 -300 Descending Albuquerque Center
09:42PM 32.8972 -113.1136 260° West 184 212 10,000 -60 Descending Albuquerque Center
09:43PM 32.8900 -113.1686 261° West 176 203 10,000 -180 Level Albuquerque Center
09:44PM 32.8817 -113.2253 260° West 175 201 9,700 -360 Descending Albuquerque Center
09:45PM 32.8739 -113.2847 261° West 180 207 9,300 -420 Descending Albuquerque Center
09:46PM 32.8667 -113.3431 262° West 180 207 8,900 -420 Descending Albuquerque Center
09:47PM 32.8561 -113.4147 260° West 183 211 8,500 -420 Descending Albuquerque Center
09:48PM 32.8478 -113.4731 260° West 182 209 8,100 -300 Descending Albuquerque Center
09:49PM 32.8397 -113.5314 261° West 181 208 8,000 -180 Descending Albuquerque Center
09:50PM 32.8322 -113.5878 261° West 176 203 7,800 -240 Descending Albuquerque Center
09:51PM 32.8236 -113.6456 260° West 177 204 7,600 -300 Descending Albuquerque Center
09:52PM 32.8178 -113.6869 260° West 180 207 7,400 -300 Descending Los Angeles Center
09:52PM 32.8122 -113.7264 260° West 179 206 7,200 -240 Descending Los Angeles Center
09:53PM 32.8094 -113.7425 258° West 179 206 7,200 -240 Level Los Angeles Center
09:53PM 32.8044 -113.7850 262° West 180 207 7,000 -300 Descending Los Angeles Center
09:54PM 32.8003 -113.8033 255° West 177 204 6,900 -300 Descending Los Angeles Center
09:55PM 32.7925 -113.8614 261° West 179 206 6,700 -240 Descending Los Angeles Center
09:55PM 32.7869 -113.9131 263° West 181 208 6,500 -240 Descending Los Angeles Center
09:56PM 32.7847 -113.9194 248° West 181 208 6,500 -300 Level Los Angeles Center
09:57PM 32.7758 -113.9828 261° West 182 209 6,200 -300 Descending Los Angeles Center
09:57PM 32.7747 -114.0325 268° West 184 212 6,000 -240 Descending Los Angeles Center
09:58PM 32.7758 -114.0489 275° West 191 220 6,000 -120 Level Los Angeles Center
09:59PM 32.7742 -114.0925 267° West 184 212 5,900 -120 Descending Los Angeles Center
09:59PM 32.7733 -114.1128 267° West 183 211 5,900 -300 Level Los Angeles Center
10:00PM 32.7719 -114.1539 268° West 184 212 5,600 -420 Descending Los Angeles Center
10:00PM 32.7725 -114.1739 272° West 188 216 5,500 -420 Descending Los Angeles Center
10:01PM 32.7722 -114.2161 270° West 187 215 5,200 -300 Descending Los Angeles Center
10:01PM 32.7736 -114.2344 275° West 190 219 5,200 -540 Level Los Angeles Center
10:02PM 32.7694 -114.2772 263° West 187 215 4,700 -720 Descending Los Angeles Center
10:02PM 32.7600 -114.2967 240° Southwest 188 216 4,500 -600 Descending Los Angeles Center
10:03PM 32.7467 -114.3478 253° West 185 213 4,100 -420 Descending Los Angeles Center
10:03PM 32.7439 -114.3567 250° West 190 219 4,100 -540 Level Los Angeles Center
10:04PM 32.7319 -114.4053 254° West 184 212 3,600 -600 Descending Los Angeles Center
10:04PM 32.7308 -114.4108 257° West 186 214 3,500 -1,020 Descending Los Angeles Center
10:05PM 32.7067 -114.4533 236° Southwest 179 206 2,600 -1,020 Descending Los Angeles Center
10:05PM 32.7042 -114.4611 249° West 162 186 2,500 -780 Descending Los Angeles Center
10:06PM 32.6839 -114.4942 234° Southwest 164 189 1,800 -840 Descending Los Angeles Center
10:06PM 32.6836 -114.4997 267° West 131 151 1,700 -600 Descending Los Angeles Center
10:07PM 32.6742 -114.5364 253° West 150 173 1,200 -540 Descending Los Angeles Center
10:07PM 32.6769 -114.5419 301° West 132 152 1,200 -600 Level Los Angeles Center
10:08PM 32.6622 -114.5722 240° Southwest 134 154 600 -720 Descending Los Angeles Center
10:08PM 32.6667 -114.5778 314° West 102 117 500 -300 Descending Los Angeles Center
10:09PM 32.6536 -114.6114 245° Southwest 126 145 300 -240 Descending Los Angeles Center